Station: Cloncurry

  Atmospheric Gas Attenuation - ITU Rec 676-11   --------------- db/100km ---------------
Date Time Temp RH % AH g/m3 Dew Point Wind Direction Speed kph Gust kph Barometer mB Rainfall Since 9am 24GHz 47GHz 76GHz 122GHz 134GHz 241GHz
27 01:20 27 50 12.87 15.7 11 13 1004.5 0 27.9 28.3 48.8 128.8 133.1 461.5
27 01:10 27.3 50 13.08 16 13 13 1004.6 0 28.3 28.6 49.4 130.5 135.2 469.1
27 01:00 27.2 53 13.79 16.8 11 15 1004.8 0 29.8 29.7 52.3 138.1 144.5 501.4
27 00:50 27.1 56 14.49 17.6 9 11 1004.9 0 31.3 30.9 55.2 145.7 153.9 534.1
27 00:40 26.6 58 14.6 17.7 7 9 1004.8 0 31.6 31.2 55.9 147.8 156.3 542.6
27 00:30 26.4 58 14.44 17.5 0 0 1004.8 0 31.2 31.0 55.4 146.4 154.6 536.5
27 00:20 26.7 57 14.43 17.5 0 0 1004.9 0 31.2 30.9 55.2 145.8 153.9 534.0
27 00:10 27.4 55 14.47 17.8 0 0 1005 0 31.2 30.8 54.9 144.9 153.0 531.1
27 00:00 27.4 53 13.95 17 6 9 1005.1 0 30.1 29.9 52.8 139.4 146.2 507.5
26 23:50 28.2 51 14.02 17.1 7 7 1005.2 0 30.2 29.8 52.6 138.8 145.7 505.5
26 23:40 28 52 14.14 17.5 7 9 1005.2 0 30.5 30.0 53.2 140.4 147.6 512.2
26 23:30 26.9 57 14.59 17.9 4 13 1005.2 0 31.5 31.1 55.7 147.2 155.6 540.2
26 23:20 27 57 14.67 17.8 0 0 1005.2 0 31.7 31.2 56.0 147.9 156.5 543.2
26 23:10 27.2 59 15.35 18.5 0 0 1005.2 0 33.1 32.3 58.6 154.9 165.2 573.6
26 23:00 27.3 55 14.39 17.5 0 0 1005.2 0 31.1 30.7 54.6 144.3 152.2 528.2
26 22:50 27.1 56 14.49 17.8 0 0 1005.2 0 31.3 30.9 55.2 145.7 153.9 534.2
26 22:40 27.2 56 14.57 17.7 0 0 1005.2 0 31.4 31.0 55.4 146.4 154.8 537.2
26 22:30 27.6 54 14.37 17.5 0 0 1005.1 0 31.0 30.5 54.3 143.5 151.3 525.3
26 22:20 27.8 51 13.72 17 0 0 1005.1 0 29.6 29.4 51.6 136.3 142.5 494.6
26 22:10 28 48 13.05 16 0 0 1005 0 28.2 28.3 48.9 129.1 133.7 463.8
26 22:00 28.6 45 12.65 15.5 0 0 1004.9 0 27.3 27.5 47.0 124.1 127.7 443.0
26 21:50 28.5 45 12.58 15.4 0 0 1004.8 0 27.2 27.4 46.8 123.5 127.0 440.5
26 21:40 28.8 42 11.93 14.6 0 0 1004.8 0 25.8 26.4 44.3 116.7 118.7 411.4
26 21:30 29.3 41 11.97 14.7 0 0 1004.7 0 25.9 26.3 44.1 116.4 118.4 410.5
26 21:20 29.7 42 12.53 15.4 0 0 1004.6 0 27.0 27.0 45.9 121.2 124.5 431.8
26 21:10 30.2 42 12.88 16.2 2 6 1004.5 0 27.7 27.3 46.9 123.9 127.9 443.8
26 21:00 30.6 38 11.91 14.7 6 7 1004.5 0 25.7 25.8 43.2 113.9 115.8 401.4
26 20:50 30.9 36 11.46 14.1 6 6 1004.3 0 24.7 25.1 41.5 109.3 110.1 381.7
26 20:40 30.9 36 11.46 14.1 6 7 1004.2 0 24.7 25.1 41.5 109.2 110.1 381.7
26 20:30 31.1 36 11.59 14.3 7 9 1004.1 0 25.0 25.2 41.8 110.2 111.3 385.9
26 20:20 31.2 35 11.32 13.9 7 9 1003.9 0 24.4 24.8 40.8 107.5 108.1 374.6
26 20:10 31.6 34 11.24 13.8 11 11 1003.8 0 24.2 24.6 40.3 106.3 106.7 369.6
26 20:00 32 31 10.47 13.2 9 11 1003.8 0 22.6 23.4 37.5 98.8 97.6 337.9
26 19:50 32.3 32 10.98 13.5 11 11 1003.6 0 23.6 24.0 39.1 103.0 102.8 356.3
26 19:40 32.4 31 10.69 13.1 9 11 1003.5 0 23.0 23.6 38.1 100.3 99.5 344.6
26 19:30 32.4 31 10.69 13.1 9 11 1003.5 0 23.0 23.6 38.1 100.3 99.5 344.6
26 19:20 32.7 31 10.87 13.4 9 9 1003.3 0 23.4 23.7 38.5 101.5 101.1 350.2
26 19:10 33 30 10.68 13.1 9 11 1003.1 0 23.0 23.4 37.8 99.4 98.6 341.6
26 19:00 33.2 30 10.8 13.3 9 11 1003.1 0 23.2 23.5 38.1 100.2 99.7 345.4
26 18:50 33.6 29 10.66 13.1 11 11 1002.8 0 22.9 23.2 37.4 98.5 97.7 338.3
26 18:40 34 28 10.51 12.9 9 9 1002.6 0 22.6 22.9 36.7 96.7 95.6 331.0
26 18:30 34.1 28 10.57 13 9 11 1002.5 0 22.7 23.0 36.9 97.1 96.1 332.8
26 18:20 34.4 26 9.97 12.1 9 11 1002.4 0 21.5 22.1 34.8 91.6 89.4 309.5
26 18:10 34.6 27 10.46 12.9 11 11 1002.3 0 22.5 22.7 36.3 95.5 94.3 326.7
26 18:00 34.6 27 10.46 12.9 13 17 1002.3 0 22.5 22.7 36.3 95.5 94.3 326.7
26 17:50 34.8 28 10.96 13.6 11 11 1002.2 0 23.5 23.3 37.8 99.6 99.4 344.5
26 17:40 35.2 27 10.79 13.4 15 17 1002.2 0 23.1 23.0 37.1 97.7 97.1 336.5
26 17:30 35.4 26 10.5 13.5 17 20 1002.2 0 22.5 22.5 36.1 95.0 93.8 325.0
26 17:20 35.9 27 11.19 14.5 15 17 1002 0 23.9 23.3 38.1 100.3 100.5 348.4
26 17:10 35.6 28 11.43 14.3 15 19 1002 0 24.4 23.7 39.0 102.7 103.4 358.7
26 17:00 35.5 26 10.55 13.6 11 17 1001.9 0 22.6 22.6 36.2 95.2 94.2 326.4
26 16:50 35 27 10.68 13.2 11 15 1001.9 0 22.9 22.9 36.8 96.9 96.1 333.1
26 16:40 35.3 26 10.45 12.9 4 7 1001.9 0 22.4 22.5 35.9 94.6 93.4 323.5
26 16:30 35.4 26 10.5 13.5 9 19 1002 0 22.5 22.5 36.1 94.9 93.8 325.0
26 16:20 35.2 26 10.39 12.8 4 6 1001.9 0 22.3 22.4 35.8 94.2 92.9 321.7
26 16:10 35.8 27 11.13 13.9 17 19 1001.9 0 23.8 23.3 37.9 99.9 100.0 346.6
26 16:00 35.5 28 11.37 14.2 15 20 1001.9 0 24.3 23.7 38.8 102.3 102.9 356.8
26 15:50 35.4 26 10.5 13 17 20 1002 0 22.5 22.5 36.1 94.9 93.8 325.0
26 15:40 35.3 25 10.04 12.3 7 13 1002.1 0 21.6 22.0 34.7 91.2 89.1 308.6
26 15:30 34.6 26 10.07 12.3 6 13 1002.2 0 21.7 22.2 35.0 92.2 90.2 312.3
26 15:20 35 25 9.89 12 0 2 1002.4 0 21.3 21.9 34.3 90.3 87.9 304.4
26 15:10 35.3 26 10.45 12.9 15 15 1002.5 0 22.4 22.5 36.0 94.7 93.4 323.6
26 15:00 34.9 28 11.02 13.7 13 19 1002.6 0 23.6 23.4 38.0 100.1 99.9 346.4
26 14:50 35.3 26 10.45 12.9 13 19 1002.7 0 22.4 22.5 36.0 94.7 93.4 323.7
26 14:40 34.6 29 11.23 14 9 13 1002.7 0 24.0 23.7 38.8 102.3 102.6 355.6
26 14:30 34.4 27 10.35 12.7 7 13 1003 0 22.2 22.6 36.1 94.9 93.4 323.6
26 14:20 34.3 28 10.68 13.2 6 6 1003.1 0 22.9 23.1 37.2 97.9 97.1 336.3
26 14:10 34.3 27 10.3 12.6 13 15 1003.3 0 22.1 22.6 35.9 94.6 93.1 322.2
26 14:00 33.9 27 10.08 12.3 11 17 1003.5 0 21.7 22.4 35.4 93.2 91.2 315.7
26 13:50 34.1 28 10.57 13.5 7 13 1003.6 0 22.7 23.0 36.9 97.2 96.2 333.1
26 13:40 34.4 27 10.35 12.7 11 13 1003.8 0 22.2 22.6 36.1 95.0 93.5 323.8
26 13:30 33.6 26 9.56 11.5 9 20 1004 0 20.7 21.8 33.9 89.1 86.1 297.8
26 13:20 33.7 23 8.5 9.7 0 0 1004.2 0 18.5 20.5 30.6 80.3 75.2 259.5
26 13:10 33.3 28 10.13 12.3 6 6 1004.4 0 21.8 22.6 35.9 94.4 92.5 320.1
26 13:00 33.1 21 7.52 7.9 7 15 1004.5 0 16.5 19.4 27.9 73.0 66.0 227.2
26 12:50 32.7 22 7.71 8.2 2 6 1004.7 0 16.9 19.7 28.6 74.8 68.2 234.9
26 12:40 32.6 18 6.28 5.2 13 15 1005 0 14.0 18.0 24.4 63.7 54.5 186.6
26 12:30 32.4 21 7.24 7.3 13 17 1005 0 16.0 19.2 27.3 71.4 63.8 219.5
26 12:20 32.5 22 7.63 8 13 15 1005.3 0 16.8 19.7 28.4 74.4 67.6 232.8
26 12:10 31.9 17 5.71 3.8 6 9 1005.5 0 12.8 17.5 23.0 59.9 49.6 169.3
26 12:00 31.5 18 5.92 4.3 13 19 1005.4 0 13.3 17.8 23.7 61.8 51.8 177.1
26 11:50 31.7 19 6.31 5.3 17 19 1005.6 0 14.1 18.3 24.8 64.7 55.4 189.7
26 11:40 31 17 5.44 3.1 13 15 1005.6 0 12.3 17.4 22.5 58.5 47.6 162.2
26 11:30 30.8 18 5.7 3.8 13 17 1005.7 0 12.9 17.7 23.3 60.7 50.2 171.2
26 11:20 30.9 18 5.73 3.8 11 15 1005.9 0 12.9 17.7 23.4 60.8 50.4 172.0
26 11:10 30.3 17 5.24 2.5 11 13 1006 0 11.9 17.3 22.1 57.5 46.2 157.0
26 11:00 30 18 5.46 3.1 9 15 1006.1 0 12.4 17.6 22.8 59.4 48.4 164.9
26 10:50 29.5 19 5.61 3.5 11 13 1006.2 0 12.7 17.9 23.4 60.9 50.1 170.9
26 10:40 29.2 16 4.65 0.8 11 13 1006.3 0 10.7 16.8 20.8 53.8 41.3 139.6
26 10:30 29.1 19 5.49 3.1 9 15 1006.3 0 12.5 17.8 23.2 60.3 49.2 167.6
26 10:20 28.8 19 5.4 2.9 11 11 1006.3 0 12.3 17.7 23.0 59.8 48.5 165.2
26 10:10 28.7 17 4.8 1.3 13 15 1006.3 0 11.1 17.1 21.3 55.3 42.9 145.4
26 10:00 27.9 19 5.14 2.2 15 17 1006.4 0 11.8 17.6 22.5 58.4 46.5 158.1
26 09:50 27.9 19 5.14 2.2 13 15 1006.2 0 11.8 17.6 22.5 58.4 46.5 158.1
26 09:40 27.8 20 5.38 2.8 13 15 1006.2 0 12.3 17.9 23.2 60.3 48.9 166.4
26 09:30 27.9 16 4.33 -0.2 15 19 1006.2 0 10.1 16.6 20.2 52.2 38.9 131.2
26 09:20 27.8 17 4.57 0.5 15 17 1006.2 0 10.6 16.9 20.9 54.1 41.2 139.3
26 09:10 27.7 16 4.28 -0.4 19 20 1006.2 0 10.0 16.6 20.1 52.0 38.5 129.9
26 09:00 27.6 16 4.26 -0.5 17 20 1006.1 0 10.0 16.6 20.0 51.9 38.4 129.4
26 08:50 27.6 18 4.79 1.2 13 17 1005.9 0 11.1 17.2 21.5 55.9 43.3 146.9

Last Refresh: 27-Feb-2021 02:07:31

Most of the information presented on this site is sourced from the Bureau of Meteorology.  Copyright in all material sourced from the Bureau of Meteorology resides with the Commonwealth of Australia.